createdAt,value
2023-02-08T00:00:10.862Z,48.35
2023-02-08T00:02:37.835Z,50.83
2023-02-08T00:05:05.511Z,47.50
2023-02-08T00:07:32.409Z,41.58
2023-02-08T00:09:59.191Z,39.72
2023-02-08T00:12:26.173Z,37.45
2023-02-08T00:14:53.034Z,42.67
2023-02-08T00:17:20.194Z,40.45
2023-02-08T00:19:47.006Z,40.15
2023-02-08T00:22:14.010Z,43.85
2023-02-08T00:24:40.894Z,35.90
2023-02-08T00:27:09.361Z,39.78
2023-02-08T00:29:37.266Z,43.78
2023-02-08T00:32:05.079Z,46.63
2023-02-08T00:34:31.926Z,40.22
2023-02-08T00:36:59.210Z,44.28
2023-02-08T00:39:25.958Z,41.53
2023-02-08T00:41:52.976Z,43.40
2023-02-08T00:44:19.906Z,44.70
2023-02-08T00:46:46.745Z,42.80
2023-02-08T00:49:13.582Z,40.33
2023-02-08T00:51:40.501Z,40.28
2023-02-08T00:54:07.387Z,40.20
2023-02-08T00:56:34.446Z,41.90
2023-02-08T00:59:01.220Z,38.58
2023-02-08T01:01:28.077Z,38.25
2023-02-08T01:03:54.872Z,43.85
2023-02-08T01:06:21.929Z,44.85
2023-02-08T01:08:48.837Z,38.75
2023-02-08T01:11:22.603Z,38.15
2023-02-08T01:13:50.098Z,40.88
2023-02-08T01:16:19.733Z,42.85
2023-02-08T01:18:48.693Z,42.13
2023-02-08T01:21:21.547Z,35.92
2023-02-08T01:23:49.171Z,39.67
2023-02-08T01:26:18.006Z,39.90
2023-02-08T01:28:46.348Z,40.95
2023-02-08T01:31:17.840Z,39.08
2023-02-08T01:33:45.428Z,37.30
2023-02-08T01:36:13.120Z,42.58
2023-02-08T01:38:42.792Z,40.15
2023-02-08T01:41:15.348Z,42.55
2023-02-08T01:44:06.989Z,38.03
2023-02-08T01:46:36.772Z,39.03
2023-02-08T01:49:21.537Z,43.25
2023-02-08T01:51:54.076Z,38.45
2023-02-08T01:54:24.170Z,39.35
2023-02-08T01:56:52.464Z,38.08
2023-02-08T01:59:36.475Z,42.05
2023-02-08T02:02:05.544Z,32.35
2023-02-08T02:04:32.454Z,33.17
2023-02-08T02:07:01.856Z,34.63
2023-02-08T02:09:34.720Z,38.25
2023-02-08T02:12:02.408Z,35.10
2023-02-08T02:14:29.248Z,28.95
2023-02-08T02:16:56.848Z,32.83
2023-02-08T02:19:37.363Z,32.58
2023-02-08T02:22:16.398Z,32.58
2023-02-08T02:25:16.878Z,33.05
2023-02-08T02:28:20.729Z,34.30
2023-02-08T02:31:15.277Z,33.47
2023-02-08T02:34:05.170Z,32.60
2023-02-08T02:37:02.815Z,33.30
2023-02-08T02:39:47.234Z,35.55
2023-02-08T02:42:53.341Z,40.10
2023-02-08T02:45:29.525Z,38.75
2023-02-08T02:48:11.108Z,37.08
2023-02-08T02:51:17.187Z,34.67
2023-02-08T02:53:59.496Z,34.53
2023-02-08T02:56:31.761Z,28.02
2023-02-08T02:59:04.154Z,38.65
2023-02-08T03:01:32.867Z,28.17
2023-02-08T03:03:59.844Z,34.17
2023-02-08T03:06:49.361Z,31.95
2023-02-08T03:09:28.710Z,28.83
2023-02-08T03:12:21.881Z,28.38
2023-02-08T03:14:50.354Z,28.70
2023-02-08T03:17:46.015Z,26.63
2023-02-08T03:20:21.494Z,23.20
2023-02-08T03:23:10.161Z,21.90
2023-02-08T03:25:52.113Z,21.80
2023-02-08T03:28:30.533Z,20.67
2023-02-08T03:31:12.429Z,23.23
2023-02-08T03:34:14.238Z,19.90
2023-02-08T03:36:50.431Z,19.10
2023-02-08T03:39:24.766Z,21.92
2023-02-08T03:41:55.779Z,19.58
2023-02-08T03:44:31.112Z,23.92
2023-02-08T03:47:05.417Z,20.10
2023-02-08T03:49:35.887Z,19.83
2023-02-08T03:52:06.699Z,16.88
2023-02-08T03:54:38.671Z,20.25
2023-02-08T03:57:26.523Z,22.52
2023-02-08T04:00:01.552Z,22.63
2023-02-08T04:02:48.997Z,20.90
2023-02-08T04:05:16.599Z,20.77
2023-02-08T04:07:43.432Z,17.38
2023-02-08T04:10:10.518Z,21.48
2023-02-08T04:12:37.330Z,17.40
2023-02-08T04:15:04.548Z,17.05
2023-02-08T04:17:32.354Z,19.48
2023-02-08T04:20:00.496Z,20.92
2023-02-08T04:22:27.529Z,19.42
2023-02-08T04:24:54.473Z,19.23
2023-02-08T04:27:21.336Z,22.45
2023-02-08T04:29:48.520Z,20.20
2023-02-08T04:32:15.349Z,17.98
2023-02-08T04:34:42.252Z,21.15
2023-02-08T04:37:09.602Z,22.58
2023-02-08T04:39:36.829Z,21.73
2023-02-08T04:42:03.929Z,20.75
2023-02-08T04:44:32.927Z,24.67
2023-02-08T04:47:00.532Z,24.58
2023-02-08T04:49:27.782Z,26.98
2023-02-08T04:51:56.931Z,24.67
2023-02-08T04:54:24.204Z,24.33
2023-02-08T04:56:51.336Z,25.48
2023-02-08T04:59:19.110Z,25.60
2023-02-08T05:01:45.963Z,26.52
2023-02-08T05:04:12.867Z,30.15
2023-02-08T05:06:39.925Z,27.58
2023-02-08T05:09:09.353Z,32.80
2023-02-08T05:11:36.968Z,23.35
2023-02-08T05:14:04.507Z,25.35
2023-02-08T05:16:31.980Z,30.73
2023-02-08T05:18:59.052Z,24.83
2023-02-08T05:21:25.883Z,22.08
2023-02-08T05:23:52.844Z,31.17
2023-02-08T05:26:20.555Z,28.67
2023-02-08T05:28:47.934Z,25.77
2023-02-08T05:31:21.827Z,24.90
2023-02-08T05:33:50.049Z,22.42
2023-02-08T05:36:17.628Z,34.03
2023-02-08T05:38:44.832Z,28.45
2023-02-08T05:41:12.572Z,28.42
2023-02-08T05:43:39.494Z,22.92
2023-02-08T05:46:06.358Z,25.73
2023-02-08T05:48:34.378Z,33.78
2023-02-08T05:51:01.358Z,31.88
2023-02-08T05:53:28.326Z,29.00
2023-02-08T05:55:58.108Z,22.88
2023-02-08T05:58:25.995Z,31.52
2023-02-08T06:00:53.602Z,32.50
2023-02-08T06:03:20.677Z,62.50
2023-02-08T06:05:48.127Z,40.42
2023-02-08T06:08:15.850Z,36.13
2023-02-08T06:10:43.377Z,23.63
2023-02-08T06:13:10.129Z,20.75
2023-02-08T06:15:37.845Z,24.63
2023-02-08T06:18:04.805Z,22.25
2023-02-08T06:20:31.706Z,25.30
2023-02-08T06:22:58.600Z,25.33
2023-02-08T06:25:25.496Z,19.67
2023-02-08T06:27:52.304Z,24.35
2023-02-08T06:30:19.482Z,22.65
2023-02-08T06:32:46.411Z,23.65
2023-02-08T06:35:13.801Z,19.05
2023-02-08T06:37:40.647Z,22.08
2023-02-08T06:40:09.066Z,22.52
2023-02-08T06:42:36.188Z,20.60
2023-02-08T06:45:03.181Z,21.90
2023-02-08T06:47:30.638Z,77.25
2023-02-08T06:49:57.529Z,28.65
2023-02-08T06:52:24.657Z,29.17
2023-02-08T06:54:51.434Z,27.40
2023-02-08T06:57:18.248Z,24.63
2023-02-08T06:59:46.218Z,21.48
2023-02-08T07:02:15.920Z,23.52
2023-02-08T07:04:43.919Z,21.30
2023-02-08T07:07:12.654Z,22.98
2023-02-08T07:09:39.974Z,33.80
2023-02-08T07:12:07.008Z,43.17
2023-02-08T07:14:40.516Z,33.42
2023-02-08T07:17:08.143Z,27.02
2023-02-08T07:19:34.979Z,22.17
2023-02-08T07:22:08.350Z,29.67
2023-02-08T07:24:40.462Z,27.73
2023-02-08T07:27:09.609Z,26.67
2023-02-08T07:29:36.776Z,28.45
2023-02-08T07:32:04.990Z,26.80
2023-02-08T07:34:35.136Z,25.27
2023-02-08T07:37:02.543Z,29.37
2023-02-08T07:39:31.378Z,32.72
2023-02-08T07:41:59.000Z,30.58
2023-02-08T07:44:29.294Z,28.40
2023-02-08T07:46:56.300Z,31.25
2023-02-08T07:49:23.249Z,28.75
2023-02-08T07:51:50.602Z,24.58
2023-02-08T07:54:17.458Z,28.13
2023-02-08T07:56:44.801Z,22.52
2023-02-08T07:59:11.735Z,27.40
2023-02-08T08:01:39.135Z,27.80
2023-02-08T08:04:06.416Z,22.75
2023-02-08T08:06:33.745Z,47.15
2023-02-08T08:09:01.521Z,25.23
2023-02-08T08:11:28.448Z,63.03
2023-02-08T08:13:55.349Z,44.67
2023-02-08T08:16:22.846Z,28.77
2023-02-08T08:18:50.962Z,23.20
2023-02-08T08:21:17.908Z,29.65
2023-02-08T08:23:45.045Z,24.08
2023-02-08T08:26:18.134Z,18.65
2023-02-08T08:28:46.877Z,21.33
2023-02-08T08:31:17.743Z,22.20
2023-02-08T08:33:45.268Z,25.65
2023-02-08T08:36:12.331Z,23.10
2023-02-08T08:38:41.194Z,23.52
2023-02-08T08:41:10.163Z,19.98
2023-02-08T08:43:37.174Z,19.67
2023-02-08T08:46:06.168Z,24.60
2023-02-08T08:48:34.952Z,29.75
2023-02-08T08:51:02.839Z,24.60
2023-02-08T08:53:30.322Z,23.38
2023-02-08T08:55:57.372Z,24.23
2023-02-08T08:58:24.290Z,25.45
2023-02-08T09:00:52.451Z,23.80
2023-02-08T09:03:19.287Z,23.15
2023-02-08T09:05:46.912Z,22.95
2023-02-08T09:08:14.250Z,21.55
2023-02-08T09:10:41.674Z,24.23
2023-02-08T09:13:09.152Z,23.60
2023-02-08T09:15:40.012Z,16.58
2023-02-08T09:20:34.137Z,21.45
2023-02-08T09:23:01.690Z,23.70
2023-02-08T09:25:28.595Z,19.38
2023-02-08T09:27:55.422Z,18.13
2023-02-08T09:30:22.613Z,18.52
2023-02-08T09:32:49.660Z,15.80
2023-02-08T09:35:16.685Z,14.70
2023-02-08T09:37:43.935Z,19.77
2023-02-08T09:40:23.451Z,19.95
2023-02-08T09:43:09.193Z,19.40
2023-02-08T09:45:59.353Z,22.23
2023-02-08T09:48:34.992Z,12.27
2023-02-08T09:51:27.746Z,14.98
2023-02-08T09:54:03.131Z,20.55
2023-02-08T09:56:37.155Z,17.35
2023-02-08T09:59:04.306Z,15.77
2023-02-08T10:01:36.609Z,42.85
2023-02-08T10:04:36.701Z,18.15
2023-02-08T10:07:03.789Z,26.20
2023-02-08T10:09:30.654Z,24.98
2023-02-08T10:12:28.528Z,15.30
2023-02-08T10:15:23.088Z,15.32
2023-02-08T10:18:19.210Z,20.52
2023-02-08T10:21:23.133Z,19.63
2023-02-08T10:24:25.337Z,18.42
2023-02-08T10:27:17.042Z,48.97
2023-02-08T10:30:31.700Z,24.23
2023-02-08T10:33:02.632Z,17.17
2023-02-08T10:35:56.307Z,13.82
2023-02-08T10:38:44.225Z,30.55
2023-02-08T10:41:33.803Z,18.60
2023-02-08T10:44:13.459Z,18.38
2023-02-08T10:47:11.616Z,11.82
2023-02-08T10:49:59.896Z,28.58
2023-02-08T10:52:27.583Z,23.85
2023-02-08T10:54:58.269Z,23.13
2023-02-08T10:57:32.161Z,23.90
2023-02-08T11:00:27.057Z,36.55
2023-02-08T11:03:00.828Z,19.88
2023-02-08T11:05:37.615Z,15.05
2023-02-08T11:08:15.641Z,16.17
2023-02-08T11:11:00.310Z,18.00
2023-02-08T11:13:36.100Z,20.08
2023-02-08T11:16:06.512Z,18.02
2023-02-08T11:18:57.217Z,28.38
2023-02-08T11:21:33.769Z,18.77
2023-02-08T11:24:07.729Z,26.05
2023-02-08T11:26:37.472Z,25.02
2023-02-08T11:29:26.542Z,25.20
2023-02-08T11:31:58.193Z,25.35
2023-02-08T11:34:28.234Z,15.63
2023-02-08T11:36:57.458Z,17.90
2023-02-08T11:39:55.638Z,22.88
2023-02-08T11:42:27.460Z,21.40
2023-02-08T11:44:56.045Z,29.00
2023-02-08T11:47:35.283Z,39.95
2023-02-08T11:50:07.428Z,20.95
2023-02-08T11:52:39.604Z,27.52
2023-02-08T11:55:18.704Z,22.10
2023-02-08T11:57:58.039Z,19.33
2023-02-08T12:00:28.821Z,30.38
2023-02-08T12:03:01.856Z,18.48
2023-02-08T12:05:43.142Z,21.63
2023-02-08T12:08:38.164Z,24.58
2023-02-08T12:11:15.013Z,30.35
2023-02-08T12:13:51.157Z,24.70
2023-02-08T12:16:20.963Z,23.45
2023-02-08T12:19:19.361Z,30.80
2023-02-08T12:21:50.167Z,28.35
2023-02-08T12:24:23.140Z,47.38
2023-02-08T12:27:20.084Z,29.27
2023-02-08T12:30:01.632Z,26.20
2023-02-08T12:32:49.702Z,25.48
2023-02-08T12:35:41.710Z,30.77
2023-02-08T12:38:46.830Z,25.77
2023-02-08T12:41:28.103Z,25.00
2023-02-08T12:44:16.463Z,32.00
2023-02-08T12:47:25.494Z,25.60
2023-02-08T12:50:20.022Z,28.58
2023-02-08T12:53:25.726Z,26.10
2023-02-08T12:55:56.464Z,31.33
2023-02-08T12:58:45.465Z,28.45
2023-02-08T13:01:22.956Z,40.67
2023-02-08T13:04:05.072Z,28.38
2023-02-08T13:06:40.327Z,32.05
2023-02-08T13:09:35.664Z,37.67
2023-02-08T13:12:12.725Z,33.28
2023-02-08T13:14:51.154Z,35.80
2023-02-08T13:17:22.864Z,31.38
2023-02-08T13:20:11.138Z,30.08
2023-02-08T13:22:41.997Z,35.25
2023-02-08T13:27:44.266Z,32.00
2023-02-08T13:30:22.143Z,27.90
2023-02-08T13:32:51.848Z,58.30
2023-02-08T13:35:24.723Z,31.23
2023-02-08T13:37:58.762Z,31.42
2023-02-08T13:40:29.900Z,28.20
2023-02-08T13:43:02.275Z,39.00
2023-02-08T13:45:43.053Z,38.38
2023-02-08T13:48:16.649Z,38.25
2023-02-08T13:50:56.346Z,40.42
2023-02-08T13:53:38.873Z,34.38
2023-02-08T13:56:09.941Z,37.40
2023-02-08T14:01:17.888Z,48.33
2023-02-08T14:04:04.960Z,52.17
2023-02-08T14:06:33.892Z,68.60
2023-02-08T14:09:29.767Z,65.35
2023-02-08T14:12:06.483Z,56.20
2023-02-08T14:14:38.708Z,39.85
2023-02-08T14:17:18.090Z,46.55
2023-02-08T14:19:55.861Z,36.97
2023-02-08T14:22:23.237Z,43.00
2023-02-08T14:25:02.029Z,35.58
2023-02-08T14:27:39.132Z,34.05
2023-02-08T14:30:21.665Z,33.65
2023-02-08T14:32:53.030Z,33.17
2023-02-08T14:35:26.376Z,38.40
2023-02-08T14:38:36.337Z,36.28
2023-02-08T14:41:04.328Z,37.63
2023-02-08T14:43:33.828Z,44.45
2023-02-08T14:46:38.012Z,44.38
2023-02-08T14:49:19.267Z,37.00
2023-02-08T14:51:54.247Z,39.97
2023-02-08T14:54:50.059Z,36.92
2023-02-08T14:57:25.717Z,36.58
2023-02-08T14:59:53.959Z,35.38
2023-02-08T15:02:26.557Z,32.60
2023-02-08T15:04:53.752Z,40.17
2023-02-08T15:07:31.270Z,51.05
2023-02-08T15:10:03.732Z,32.70
2023-02-08T15:12:40.325Z,37.60
2023-02-08T15:15:24.494Z,47.33
2023-02-08T15:17:53.674Z,41.92
2023-02-08T15:20:22.226Z,40.75
2023-02-08T15:22:49.101Z,93.35
2023-02-08T15:25:22.787Z,81.50
2023-02-08T15:27:53.818Z,39.75
2023-02-08T15:32:52.178Z,48.45
2023-02-08T15:35:20.756Z,78.80
2023-02-08T15:37:47.931Z,65.28
2023-02-08T15:40:32.676Z,61.10
2023-02-08T15:43:20.850Z,66.30
2023-02-08T15:46:00.503Z,57.33
2023-02-08T15:48:29.302Z,43.25
2023-02-08T15:50:57.812Z,61.88
2023-02-08T15:53:27.471Z,34.15
2023-02-08T15:56:04.439Z,45.45
2023-02-08T15:58:36.621Z,44.10
2023-02-08T16:01:07.544Z,36.65
2023-02-08T16:03:36.843Z,53.22
2023-02-08T16:06:06.710Z,43.05
2023-02-08T16:08:42.184Z,31.67
2023-02-08T16:11:21.279Z,42.17
2023-02-08T16:13:51.777Z,45.70
2023-02-08T16:16:27.004Z,78.15
2023-02-08T16:19:21.591Z,56.80
2023-02-08T16:21:51.718Z,54.17
2023-02-08T16:24:25.647Z,64.45
2023-02-08T16:27:06.071Z,38.17
2023-02-08T16:29:39.270Z,41.87
2023-02-08T16:32:32.100Z,40.95
2023-02-08T16:35:01.490Z,34.33
2023-02-08T16:37:31.455Z,35.00
2023-02-08T16:42:40.083Z,31.90
2023-02-08T16:45:19.835Z,32.95
2023-02-08T16:47:48.339Z,33.08
2023-02-08T16:50:29.737Z,39.55
2023-02-08T16:53:01.316Z,27.73
2023-02-08T16:55:31.958Z,48.80
2023-02-08T16:57:59.639Z,41.00
2023-02-08T17:00:32.434Z,34.60
2023-02-08T17:03:00.049Z,34.35
2023-02-08T17:05:31.012Z,34.10
2023-02-08T17:07:59.740Z,33.38
2023-02-08T17:10:29.745Z,33.35
2023-02-08T17:13:13.483Z,31.13
2023-02-08T17:15:46.829Z,38.28
2023-02-08T17:18:14.398Z,34.75
2023-02-08T17:20:41.608Z,45.88
2023-02-08T17:23:09.613Z,33.20
2023-02-08T17:25:36.983Z,32.03
2023-02-08T17:28:17.246Z,31.58
2023-02-08T17:30:45.299Z,37.55
2023-02-08T17:33:18.563Z,29.95
2023-02-08T17:35:47.912Z,38.85
2023-02-08T17:38:15.583Z,31.98
2023-02-08T17:40:43.890Z,32.20
2023-02-08T17:43:12.376Z,31.90
2023-02-08T17:45:41.853Z,28.10
2023-02-08T17:48:09.309Z,31.27
2023-02-08T17:50:36.681Z,32.35
2023-02-08T17:53:04.160Z,28.80
2023-02-08T17:55:31.223Z,37.78
2023-02-08T17:58:03.592Z,22.60
2023-02-08T18:00:30.570Z,35.13
2023-02-08T18:03:00.519Z,35.00
2023-02-08T18:05:28.892Z,33.67
2023-02-08T18:07:56.795Z,31.00
2023-02-08T18:10:25.549Z,36.42
2023-02-08T18:12:52.425Z,37.80
2023-02-08T18:15:22.344Z,44.25
2023-02-08T18:17:53.803Z,40.42
2023-02-08T18:20:20.806Z,60.42
2023-02-08T18:22:47.743Z,43.92
2023-02-08T18:25:16.210Z,54.03
2023-02-08T18:27:43.495Z,67.85
2023-02-08T18:30:11.708Z,48.17
2023-02-08T18:32:38.524Z,45.13
2023-02-08T18:35:07.571Z,54.78
2023-02-08T18:37:36.145Z,39.60
2023-02-08T18:40:04.710Z,44.70
2023-02-08T18:42:34.539Z,47.45
2023-02-08T18:45:19.228Z,37.13
2023-02-08T18:48:01.091Z,38.63
2023-02-08T18:50:29.272Z,39.85
2023-02-08T18:52:56.564Z,39.28
2023-02-08T18:55:23.922Z,42.45
2023-02-08T18:58:00.531Z,37.00
2023-02-08T19:00:27.561Z,40.55
2023-02-08T19:02:54.507Z,47.05
2023-02-08T19:05:21.455Z,44.72
2023-02-08T19:07:48.385Z,39.88
2023-02-08T19:10:15.265Z,46.10
2023-02-08T19:12:42.971Z,39.53
2023-02-08T19:15:10.053Z,39.42
2023-02-08T19:17:37.164Z,38.25
2023-02-08T19:20:04.268Z,36.55
2023-02-08T19:22:31.580Z,36.22
2023-02-08T19:25:02.489Z,52.20
2023-02-08T19:27:38.721Z,102.13
2023-02-08T19:30:12.906Z,102.93
2023-02-08T19:32:50.746Z,84.20
2023-02-08T19:35:19.829Z,171.50
2023-02-08T19:37:50.389Z,151.88
2023-02-08T19:40:18.508Z,70.38
2023-02-08T19:42:45.655Z,80.07
2023-02-08T19:45:13.980Z,83.80
2023-02-08T19:47:51.592Z,47.25
2023-02-08T19:50:19.020Z,45.90
2023-02-08T19:52:46.126Z,60.40
2023-02-08T19:55:12.992Z,62.42
2023-02-08T19:57:40.442Z,59.58
2023-02-08T20:00:17.595Z,73.00
2023-02-08T20:02:48.460Z,55.60
2023-02-08T20:05:15.352Z,45.50
2023-02-08T20:07:42.246Z,74.15
2023-02-08T20:10:10.156Z,76.63
2023-02-08T20:12:37.198Z,77.82
2023-02-08T20:15:04.213Z,68.03
2023-02-08T20:17:31.160Z,72.53
2023-02-08T20:19:58.250Z,73.35
2023-02-08T20:22:25.159Z,48.70
2023-02-08T20:24:52.176Z,49.53
2023-02-08T20:27:19.377Z,65.93
2023-02-08T20:29:46.293Z,69.63
2023-02-08T20:32:13.385Z,100.75
2023-02-08T20:34:53.962Z,72.90
2023-02-08T20:37:27.062Z,73.65
2023-02-08T20:39:54.434Z,83.18
2023-02-08T20:42:21.540Z,60.40
2023-02-08T20:44:48.399Z,55.60
2023-02-08T20:47:19.218Z,65.35
2023-02-08T20:49:46.247Z,62.03
2023-02-08T20:52:13.094Z,58.97
2023-02-08T20:54:40.310Z,58.45
2023-02-08T20:57:07.361Z,41.03
2023-02-08T20:59:35.014Z,60.22
2023-02-08T21:02:02.012Z,52.38
2023-02-08T21:04:29.117Z,39.88
2023-02-08T21:06:56.048Z,39.00
2023-02-08T21:09:23.446Z,48.03
2023-02-08T21:11:51.865Z,54.22
2023-02-08T21:14:23.488Z,63.25
2023-02-08T21:16:55.939Z,57.38
2023-02-08T21:19:23.848Z,60.33
2023-02-08T21:21:52.857Z,51.15
2023-02-08T21:24:21.083Z,41.92
2023-02-08T21:26:48.017Z,72.95
2023-02-08T21:29:14.918Z,50.45
2023-02-08T21:31:42.087Z,55.65
2023-02-08T21:34:09.467Z,45.85
2023-02-08T21:36:36.379Z,47.15
2023-02-08T21:39:03.883Z,50.38
2023-02-08T21:41:33.855Z,54.08
2023-02-08T21:44:03.791Z,58.05
2023-02-08T21:46:32.427Z,43.35
2023-02-08T21:49:18.093Z,44.22
2023-02-08T21:52:03.572Z,41.33
2023-02-08T21:54:42.084Z,29.70
2023-02-08T21:57:18.723Z,29.35
2023-02-08T21:59:47.696Z,30.15
2023-02-08T22:02:26.360Z,31.38
2023-02-08T22:05:14.439Z,28.48
2023-02-08T22:07:54.321Z,32.47
2023-02-08T22:10:24.640Z,37.58
2023-02-08T22:12:52.644Z,29.52
2023-02-08T22:15:21.820Z,37.05
2023-02-08T22:17:52.514Z,36.33
2023-02-08T22:20:19.916Z,42.13
2023-02-08T22:22:46.828Z,45.13
2023-02-08T22:25:14.466Z,42.03
2023-02-08T22:27:41.458Z,39.80
2023-02-08T22:30:09.953Z,44.13
2023-02-08T22:32:40.270Z,49.88
2023-02-08T22:35:08.104Z,34.67
2023-02-08T22:37:35.660Z,38.95
2023-02-08T22:40:02.910Z,34.80
2023-02-08T22:42:30.594Z,30.38
2023-02-08T22:44:57.388Z,31.77
2023-02-08T22:47:24.690Z,37.22
2023-02-08T22:49:51.529Z,30.90
2023-02-08T22:52:18.721Z,34.55
2023-02-08T22:54:46.342Z,34.05
2023-02-08T22:57:13.319Z,30.08
2023-02-08T22:59:40.485Z,56.97
2023-02-08T23:02:07.622Z,29.17
2023-02-08T23:04:34.442Z,37.03
2023-02-08T23:07:01.464Z,40.95
2023-02-08T23:09:28.715Z,36.45
2023-02-08T23:11:55.768Z,36.00
2023-02-08T23:14:22.657Z,41.58
2023-02-08T23:16:49.670Z,29.90
2023-02-08T23:19:17.949Z,37.88
2023-02-08T23:21:46.551Z,35.55
2023-02-08T23:24:13.610Z,46.67
2023-02-08T23:26:41.039Z,50.78
2023-02-08T23:29:08.497Z,51.40
2023-02-08T23:31:35.560Z,64.20
2023-02-08T23:34:02.595Z,54.78
2023-02-08T23:36:29.547Z,45.55
2023-02-08T23:38:56.335Z,42.10
2023-02-08T23:41:24.337Z,52.25
2023-02-08T23:43:52.182Z,51.50
2023-02-08T23:46:20.964Z,48.05
2023-02-08T23:48:48.702Z,45.40
2023-02-08T23:51:17.578Z,45.88
2023-02-08T23:54:09.321Z,36.80
2023-02-08T23:56:36.506Z,45.70
2023-02-08T23:59:08.281Z,42.20
